Time;durP1;ratioP1;P1;durP2;ratioP2;P2;SDS_P1;SDS_P2;PMS_P1;PMS_P2;Temp;Humidity;BMP_temperature;BMP_pressure;BME280_temperature;BME280_humidity;BME280_pressure;Samples;Min_cycle;Max_cycle;Signal;HPM_P1;HPM_P2
2022/10/21 00:01:29;;;;;;;88.30;23.20;;;14.30;99.90;;;;;;5014669;28;20166;-85
2022/10/21 00:03:54;;;;;;;84.87;19.13;;;14.30;99.90;;;;;;5015404;28;20176;-85
2022/10/21 00:06:20;;;;;;;84.93;18.30;;;14.30;99.90;;;;;;5013736;28;20186;-84
2022/10/21 00:08:46;;;;;;;83.67;20.53;;;14.30;99.90;;;;;;5016010;28;20216;-85
2022/10/21 00:11:11;;;;;;;91.07;19.43;;;14.30;99.90;;;;;;5016188;28;20188;-84
2022/10/21 00:13:38;;;;;;;81.00;20.83;;;14.30;99.90;;;;;;5015917;28;20170;-84
2022/10/21 00:16:11;;;;;;;82.77;19.80;;;14.30;99.90;;;;;;5020166;28;20447;-84
2022/10/21 00:18:38;;;;;;;87.40;19.83;;;14.30;99.90;;;;;;5024169;28;20428;-85
2022/10/21 00:21:10;;;;;;;80.83;18.03;;;14.30;99.90;;;;;;5023734;28;20404;-86
2022/10/21 00:23:36;;;;;;;84.93;18.37;;;14.30;99.90;;;;;;5022562;28;20390;-85
2022/10/21 00:26:04;;;;;;;85.57;19.20;;;14.20;99.90;;;;;;5018543;28;20428;-84
2022/10/21 00:28:30;;;;;;;90.57;19.00;;;14.20;99.90;;;;;;5018408;28;20197;-85
2022/10/21 00:30:56;;;;;;;81.80;19.50;;;14.10;99.90;;;;;;5019083;28;20401;-85
2022/10/21 00:33:22;;;;;;;88.00;21.37;;;14.10;99.90;;;;;;5020110;28;20491;-84
2022/10/21 00:36:01;;;;;;;78.70;17.90;;;14.00;99.90;;;;;;5021298;28;20460;-84
2022/10/21 00:38:28;;;;;;;82.40;19.40;;;14.00;99.90;;;;;;5018463;28;20433;-84
2022/10/21 00:40:54;;;;;;;86.97;19.20;;;14.00;99.90;;;;;;5018655;28;20432;-84
2022/10/21 00:43:20;;;;;;;83.07;20.10;;;13.90;99.90;;;;;;5018222;28;20454;-84
2022/10/21 00:45:48;;;;;;;80.97;16.57;;;14.00;99.90;;;;;;5020353;28;20405;-84
2022/10/21 00:48:30;;;;;;;80.50;16.17;;;13.90;99.90;;;;;;5019450;28;21003;-85
2022/10/21 00:51:01;;;;;;;79.67;14.77;;;14.00;99.90;;;;;;5020050;28;20893;-84
2022/10/21 00:53:28;;;;;;;78.07;13.50;;;13.90;99.90;;;;;;5020353;28;20778;-84
2022/10/21 00:56:02;;;;;;;79.77;15.23;;;13.90;99.90;;;;;;5019888;28;20449;-84
2022/10/21 00:58:32;;;;;;;77.43;14.20;;;13.90;99.90;;;;;;5019572;28;20503;-84
2022/10/21 01:01:00;;;;;;;78.83;16.60;;;13.90;99.90;;;;;;5019404;28;20405;-86
2022/10/21 01:03:28;;;;;;;78.00;15.77;;;13.90;99.90;;;;;;5020130;28;20407;-85
2022/10/21 01:05:57;;;;;;;80.97;14.20;;;13.90;99.90;;;;;;5018600;28;20486;-85
2022/10/21 01:08:24;;;;;;;76.70;14.47;;;13.90;99.90;;;;;;5020049;28;20424;-84
2022/10/21 01:10:51;;;;;;;78.00;14.30;;;13.90;99.90;;;;;;5018795;28;20404;-85
2022/10/21 01:13:31;;;;;;;77.10;12.90;;;13.90;99.90;;;;;;5019777;28;20416;-85
2022/10/21 01:16:18;;;;;;;83.37;14.80;;;13.90;99.90;;;;;;5018198;28;20448;-84
2022/10/21 01:19:06;;;;;;;84.50;15.20;;;13.80;99.90;;;;;;5021792;28;20436;-85
2022/10/21 01:21:39;;;;;;;78.13;13.70;;;13.80;99.90;;;;;;5027246;28;20377;-85
2022/10/21 01:24:46;;;;;;;79.00;13.63;;;13.80;99.90;;;;;;5023658;28;20396;-85
2022/10/21 01:27:25;;;;;;;77.27;14.03;;;13.80;99.90;;;;;;5025802;28;20423;-85
2022/10/21 01:30:15;;;;;;;81.53;16.47;;;13.80;99.90;;;;;;5027169;28;20420;-85
2022/10/21 01:33:06;;;;;;;80.67;16.00;;;13.80;99.90;;;;;;5028421;28;20404;-86
2022/10/21 01:35:36;;;;;;;81.77;15.53;;;13.80;99.90;;;;;;5028578;28;20532;-84
2022/10/21 01:38:43;;;;;;;82.93;15.20;;;13.80;99.90;;;;;;5024211;28;20467;-84
2022/10/21 01:41:40;;;;;;;77.33;17.10;;;13.80;99.90;;;;;;4945295;29;20415;-84
2022/10/21 01:44:17;;;;;;;77.93;14.80;;;13.80;99.90;;;;;;4959772;29;20444;-84
2022/10/21 01:47:01;;;;;;;77.30;14.53;;;13.80;99.90;;;;;;5017995;28;20412;-85
2022/10/21 01:49:39;;;;;;;75.47;13.57;;;13.80;99.90;;;;;;5026180;28;20429;-86
2022/10/21 01:52:07;;;;;;;79.07;13.90;;;13.80;99.90;;;;;;5026291;28;20400;-84
2022/10/21 01:54:42;;;;;;;75.17;12.80;;;13.70;99.90;;;;;;5028137;28;20413;-85
2022/10/21 01:57:12;;;;;;;74.30;13.00;;;13.70;99.90;;;;;;5027324;28;20405;-84
2022/10/21 01:59:40;;;;;;;74.40;12.53;;;13.60;99.90;;;;;;5025530;28;20459;-85
2022/10/21 02:02:08;;;;;;;76.63;13.87;;;13.60;99.90;;;;;;5026454;28;20500;-86
2022/10/21 02:04:36;;;;;;;77.10;12.63;;;13.60;99.90;;;;;;5025249;28;20428;-84
2022/10/21 02:07:02;;;;;;;76.87;14.10;;;13.60;99.90;;;;;;5024477;28;20771;-85
2022/10/21 02:09:28;;;;;;;79.30;14.50;;;13.60;99.90;;;;;;5025353;28;20424;-85
2022/10/21 02:11:58;;;;;;;78.03;15.30;;;13.60;99.90;;;;;;5024330;28;20177;-85
2022/10/21 02:14:31;;;;;;;79.30;15.40;;;13.70;99.90;;;;;;5027471;28;20386;-85
2022/10/21 02:16:59;;;;;;;74.50;14.40;;;13.70;99.90;;;;;;5025544;28;20443;-85
2022/10/21 02:19:25;;;;;;;75.43;14.27;;;13.70;99.90;;;;;;5030147;28;20433;-84
2022/10/21 02:21:55;;;;;;;78.77;14.90;;;13.60;99.90;;;;;;5026073;28;20408;-84
2022/10/21 02:24:38;;;;;;;77.97;12.87;;;13.60;99.90;;;;;;5031270;28;20389;-85
2022/10/21 02:27:04;;;;;;;78.10;15.27;;;13.60;99.90;;;;;;5023539;28;20416;-85
2022/10/21 02:29:36;;;;;;;77.30;15.50;;;13.70;99.90;;;;;;5024767;28;20432;-86
2022/10/21 02:32:32;;;;;;;76.20;15.37;;;13.70;99.90;;;;;;5024457;28;20408;-85
2022/10/21 02:35:22;;;;;;;79.50;15.90;;;13.70;99.90;;;;;;5023777;28;20452;-86
2022/10/21 02:37:59;;;;;;;79.40;14.57;;;13.70;99.90;;;;;;5024161;28;20999;-86
2022/10/21 02:40:46;;;;;;;77.07;16.70;;;13.70;99.90;;;;;;5023931;28;20752;-86
2022/10/21 02:43:17;;;;;;;78.60;13.30;;;13.70;99.90;;;;;;5022931;28;20396;-86
2022/10/21 02:45:46;;;;;;;78.30;13.33;;;13.70;99.90;;;;;;5021084;28;20397;-86
2022/10/21 02:48:12;;;;;;;79.63;16.13;;;13.70;99.90;;;;;;5021889;28;20555;-86
2022/10/21 02:50:38;;;;;;;77.47;15.83;;;13.70;99.90;;;;;;5023027;28;20408;-86
2022/10/21 02:53:04;;;;;;;76.80;14.40;;;13.70;99.90;;;;;;5021439;28;20657;-85
2022/10/21 02:55:29;;;;;;;80.17;16.80;;;13.70;99.90;;;;;;5021690;28;20451;-86
2022/10/21 02:57:55;;;;;;;78.00;14.87;;;13.80;99.90;;;;;;5022655;28;20257;-86
2022/10/21 03:00:21;;;;;;;76.77;15.70;;;13.80;99.90;;;;;;5021936;28;20397;-85
2022/10/21 03:02:47;;;;;;;79.47;15.93;;;13.70;99.90;;;;;;5021784;28;20618;-86
2022/10/21 03:05:12;;;;;;;78.67;14.80;;;13.70;99.90;;;;;;5022264;28;20193;-86
2022/10/21 03:07:39;;;;;;;77.17;13.60;;;13.70;99.90;;;;;;5022291;28;20173;-86
2022/10/21 03:10:05;;;;;;;75.90;13.50;;;13.70;99.90;;;;;;5021695;28;20181;-85
2022/10/21 03:12:31;;;;;;;75.07;13.10;;;13.60;99.90;;;;;;5020940;28;20463;-86
2022/10/21 03:14:57;;;;;;;78.03;12.23;;;13.60;99.90;;;;;;5021980;28;20484;-86
2022/10/21 03:17:22;;;;;;;75.00;11.93;;;13.60;99.90;;;;;;5019809;28;20192;-86
2022/10/21 03:19:48;;;;;;;74.50;12.03;;;13.50;99.90;;;;;;5021328;28;20188;-86
2022/10/21 03:22:14;;;;;;;74.33;11.80;;;13.50;99.90;;;;;;5022950;28;20570;-86
2022/10/21 03:24:39;;;;;;;79.30;11.10;;;13.40;99.90;;;;;;5021653;28;20162;-86
2022/10/21 03:27:05;;;;;;;79.77;11.77;;;13.40;99.90;;;;;;5020324;28;20170;-85
2022/10/21 03:29:33;;;;;;;75.50;10.53;;;13.40;99.90;;;;;;5020626;28;20186;-86
2022/10/21 03:31:59;;;;;;;74.80;9.57;;;13.40;99.90;;;;;;5020543;28;20170;-86
2022/10/21 03:34:24;;;;;;;74.37;10.00;;;13.30;99.90;;;;;;5020821;28;20491;-86
2022/10/21 03:36:50;;;;;;;73.50;9.77;;;13.20;99.90;;;;;;5020375;28;20225;-86
2022/10/21 03:39:16;;;;;;;72.17;10.40;;;13.20;99.90;;;;;;5020196;28;20182;-86
2022/10/21 03:41:41;;;;;;;75.50;10.30;;;13.20;99.90;;;;;;5019195;28;20248;-86
2022/10/21 03:44:07;;;;;;;73.70;10.20;;;13.20;99.90;;;;;;5018965;28;20181;-85
2022/10/21 03:46:33;;;;;;;72.73;10.63;;;13.20;99.90;;;;;;5020986;28;20169;-86
2022/10/21 03:48:58;;;;;;;71.17;9.23;;;13.10;99.90;;;;;;5022510;28;20182;-86
2022/10/21 03:51:24;;;;;;;72.17;9.97;;;13.10;99.90;;;;;;5022776;28;20169;-86
2022/10/21 03:53:50;;;;;;;74.00;10.67;;;13.10;99.90;;;;;;5030374;28;20174;-86
2022/10/21 03:56:15;;;;;;;73.37;11.23;;;13.00;99.90;;;;;;5024598;28;20196;-86
2022/10/21 03:58:41;;;;;;;76.00;11.63;;;13.00;99.90;;;;;;5023593;28;20193;-85
2022/10/21 04:01:13;;;;;;;74.13;11.03;;;13.00;99.90;;;;;;5023675;28;20172;-86
2022/10/21 04:03:39;;;;;;;75.90;10.20;;;13.00;99.90;;;;;;5024262;28;20624;-86
2022/10/21 04:06:05;;;;;;;76.47;12.10;;;13.10;99.90;;;;;;5026523;28;20480;-86
2022/10/21 04:08:30;;;;;;;75.47;12.30;;;13.00;99.90;;;;;;5025851;28;20456;-86
2022/10/21 04:10:57;;;;;;;74.50;10.73;;;13.10;99.90;;;;;;5025597;28;20170;-86
2022/10/21 04:13:23;;;;;;;73.60;9.83;;;13.10;99.90;;;;;;5024658;28;20165;-86
2022/10/21 04:15:49;;;;;;;73.37;11.63;;;13.10;99.90;;;;;;5023764;28;21063;-86
2022/10/21 04:18:15;;;;;;;72.67;11.17;;;13.10;99.90;;;;;;5025346;28;20440;-86
2022/10/21 04:20:41;;;;;;;80.03;11.90;;;13.10;99.90;;;;;;5025733;28;20432;-86
2022/10/21 04:23:06;;;;;;;75.70;12.17;;;13.20;99.90;;;;;;5023729;28;20448;-86
2022/10/21 04:25:32;;;;;;;73.90;12.43;;;13.20;99.90;;;;;;5025388;28;20173;-86
2022/10/21 04:27:58;;;;;;;74.27;11.77;;;13.20;99.90;;;;;;5024076;28;20196;-85
2022/10/21 04:30:24;;;;;;;74.90;11.13;;;13.20;99.90;;;;;;5025436;28;20169;-86
2022/10/21 04:32:50;;;;;;;76.27;14.17;;;13.20;99.90;;;;;;5023786;28;20174;-86
2022/10/21 04:35:17;;;;;;;77.70;13.27;;;13.30;99.90;;;;;;5025246;28;20452;-86
2022/10/21 04:37:43;;;;;;;79.73;12.20;;;13.30;99.90;;;;;;5023128;28;20176;-86
2022/10/21 04:40:09;;;;;;;73.00;11.73;;;13.30;99.90;;;;;;5023019;28;20429;-86
2022/10/21 04:42:35;;;;;;;74.40;12.70;;;13.40;99.90;;;;;;5025005;28;20412;-86
2022/10/21 04:45:01;;;;;;;75.70;12.90;;;13.40;99.90;;;;;;5024672;28;20409;-86
2022/10/21 04:47:29;;;;;;;77.77;13.20;;;13.40;99.90;;;;;;5024109;28;20170;-86
2022/10/21 04:49:55;;;;;;;74.37;13.93;;;13.50;99.90;;;;;;5022390;28;20429;-86
2022/10/21 04:52:20;;;;;;;74.17;12.90;;;13.50;99.90;;;;;;5021891;28;20431;-86
2022/10/21 04:54:46;;;;;;;74.87;13.17;;;13.50;99.90;;;;;;5022966;28;20174;-86
2022/10/21 04:57:12;;;;;;;73.83;11.60;;;13.60;99.90;;;;;;5023160;28;20170;-86
2022/10/21 04:59:38;;;;;;;75.40;12.90;;;13.60;99.90;;;;;;5021915;28;20193;-85
2022/10/21 05:02:04;;;;;;;72.40;11.93;;;13.60;99.90;;;;;;5022379;28;20435;-86
2022/10/21 05:04:29;;;;;;;75.47;12.70;;;13.70;99.90;;;;;;5022643;28;20170;-85
2022/10/21 05:06:55;;;;;;;77.10;16.67;;;13.70;99.90;;;;;;5021973;28;20257;-86
2022/10/21 05:09:21;;;;;;;75.47;15.93;;;13.70;99.90;;;;;;5022577;28;20190;-85
2022/10/21 05:11:46;;;;;;;74.50;16.50;;;13.70;99.90;;;;;;5022824;28;20216;-86
2022/10/21 05:14:12;;;;;;;75.10;14.43;;;13.70;99.90;;;;;;5022852;28;20174;-86
2022/10/21 05:16:38;;;;;;;74.40;14.87;;;13.80;99.90;;;;;;5090442;23;20228;-86
2022/10/21 05:19:03;;;;;;;75.17;16.40;;;13.70;99.90;;;;;;5006071;28;20638;-87
2022/10/21 05:21:29;;;;;;;73.70;15.40;;;13.80;99.90;;;;;;5006189;28;20205;-87
2022/10/21 05:23:55;;;;;;;76.07;15.07;;;13.80;99.90;;;;;;5023285;28;20197;-87
2022/10/21 05:26:21;;;;;;;74.30;16.27;;;13.80;99.90;;;;;;5006154;28;20176;-87
2022/10/21 05:28:46;;;;;;;73.13;15.37;;;13.80;99.90;;;;;;5006498;28;20689;-87
2022/10/21 05:31:12;;;;;;;74.33;16.10;;;13.90;99.90;;;;;;5023726;28;20241;-87
2022/10/21 05:33:38;;;;;;;72.17;15.10;;;13.90;99.90;;;;;;5022986;28;20196;-87
2022/10/21 05:36:07;;;;;;;79.13;18.97;;;13.90;99.90;;;;;;5004859;28;20197;-86
2022/10/21 05:38:33;;;;;;;73.90;18.90;;;13.90;99.90;;;;;;5005181;28;20192;-86
2022/10/21 05:40:59;;;;;;;75.57;19.60;;;13.90;99.90;;;;;;5021729;28;20459;-86
2022/10/21 05:43:26;;;;;;;74.70;15.07;;;13.90;99.90;;;;;;5002804;28;20409;-86
2022/10/21 05:45:52;;;;;;;74.10;18.03;;;13.90;99.90;;;;;;5002440;28;20409;-86
2022/10/21 05:48:18;;;;;;;74.00;14.40;;;13.90;99.90;;;;;;5019699;28;20447;-87
2022/10/21 05:50:45;;;;;;;72.50;12.57;;;13.90;99.90;;;;;;5019485;28;20959;-86
2022/10/21 05:53:12;;;;;;;72.10;10.97;;;13.90;99.90;;;;;;5002260;28;20476;-86
2022/10/21 05:55:37;;;;;;;73.60;12.00;;;13.90;99.90;;;;;;5019597;28;20444;-86
2022/10/21 05:58:03;;;;;;;81.50;14.13;;;13.90;99.90;;;;;;5020164;28;20409;-85
2022/10/21 06:00:29;;;;;;;72.57;12.07;;;13.90;99.90;;;;;;5002804;28;20181;-86
2022/10/21 06:02:54;;;;;;;75.60;15.50;;;13.90;99.90;;;;;;5018760;28;20166;-85
2022/10/21 06:05:20;;;;;;;76.70;13.87;;;13.90;99.90;;;;;;5016763;28;20202;-85
2022/10/21 06:07:46;;;;;;;74.70;14.30;;;13.90;99.90;;;;;;4998559;28;20265;-85
2022/10/21 06:10:12;;;;;;;73.53;14.93;;;13.90;99.90;;;;;;4998876;28;20566;-85
2022/10/21 06:12:38;;;;;;;77.10;16.37;;;13.90;99.90;;;;;;5016829;28;20496;-85
2022/10/21 06:15:04;;;;;;;84.00;17.90;;;13.90;99.90;;;;;;4999965;28;20228;-85
2022/10/21 06:17:30;;;;;;;78.37;19.90;;;13.90;99.90;;;;;;4999817;28;20835;-85
2022/10/21 06:19:56;;;;;;;72.73;17.70;;;13.90;99.90;;;;;;5017902;28;20448;-85
2022/10/21 06:22:21;;;;;;;77.27;18.90;;;13.90;99.90;;;;;;5018762;28;20166;-85
2022/10/21 06:24:49;;;;;;;72.20;15.33;;;13.90;99.90;;;;;;5017667;28;20170;-86
2022/10/21 06:27:38;;;;;;;77.00;15.20;;;13.90;99.90;;;;;;5017771;28;20503;-86
2022/10/21 06:30:10;;;;;;;73.60;12.37;;;13.90;99.90;;;;;;5007992;28;20451;-86
2022/10/21 06:32:35;;;;;;;71.40;14.73;;;14.00;99.90;;;;;;5001540;28;20405;-86
2022/10/21 06:35:01;;;;;;;72.93;17.13;;;14.00;99.90;;;;;;5018800;28;20454;-86
2022/10/21 06:37:27;;;;;;;73.07;17.10;;;14.00;99.90;;;;;;5000647;28;20178;-85
2022/10/21 06:39:52;;;;;;;73.27;16.87;;;14.00;99.90;;;;;;5000517;28;20437;-85
2022/10/21 06:42:20;;;;;;;77.10;13.37;;;14.10;99.90;;;;;;5018096;28;20169;-86
2022/10/21 06:44:46;;;;;;;72.70;17.23;;;14.10;99.90;;;;;;5018503;28;20221;-86
2022/10/21 06:47:12;;;;;;;77.10;15.80;;;14.10;99.90;;;;;;5018413;28;20412;-85
2022/10/21 06:49:37;;;;;;;72.77;17.20;;;14.10;99.90;;;;;;5018569;28;20221;-86
2022/10/21 06:52:03;;;;;;;76.60;15.03;;;14.20;99.90;;;;;;5018294;28;20169;-86
2022/10/21 06:54:29;;;;;;;80.20;14.27;;;14.20;99.90;;;;;;5018025;28;20165;-86
2022/10/21 06:56:55;;;;;;;78.07;14.37;;;14.30;99.90;;;;;;5018219;28;20456;-86
2022/10/21 06:59:21;;;;;;;73.63;18.47;;;14.30;99.90;;;;;;5018821;28;20427;-86
2022/10/21 07:01:46;;;;;;;73.00;16.77;;;14.30;99.90;;;;;;5018402;28;20200;-86
2022/10/21 07:04:12;;;;;;;72.00;15.37;;;14.30;99.90;;;;;;5018996;28;20534;-86
2022/10/21 07:06:38;;;;;;;74.20;14.23;;;14.40;99.90;;;;;;5018946;28;20176;-86
2022/10/21 07:09:05;;;;;;;77.77;15.70;;;14.40;99.90;;;;;;5000784;28;20577;-86
2022/10/21 07:11:31;;;;;;;73.63;14.93;;;14.40;99.90;;;;;;5001460;28;20189;-86
2022/10/21 07:13:58;;;;;;;76.90;13.87;;;14.40;99.90;;;;;;5018729;28;20420;-85
2022/10/21 07:16:26;;;;;;;78.47;11.70;;;14.50;99.90;;;;;;5015995;28;20243;-86
2022/10/21 07:18:54;;;;;;;71.70;10.33;;;14.50;99.90;;;;;;5016238;28;20993;-85
2022/10/21 07:21:22;;;;;;;70.63;10.47;;;14.50;99.90;;;;;;4998612;28;20801;-85
2022/10/21 07:23:52;;;;;;;72.07;10.57;;;14.50;99.90;;;;;;5018212;28;20427;-85
2022/10/21 07:26:20;;;;;;;71.13;10.93;;;14.50;99.90;;;;;;5002959;28;20928;-85
2022/10/21 07:28:46;;;;;;;72.10;10.50;;;14.50;99.90;;;;;;5020055;28;20436;-85
2022/10/21 07:31:17;;;;;;;70.60;10.03;;;14.50;99.90;;;;;;5002656;28;20796;-87
2022/10/21 07:33:43;;;;;;;72.30;10.73;;;14.60;99.90;;;;;;5021369;28;20389;-85
2022/10/21 07:36:13;;;;;;;73.10;13.00;;;14.60;99.90;;;;;;5021018;28;20583;-87
2022/10/21 07:38:42;;;;;;;74.03;11.17;;;14.60;99.90;;;;;;5020631;28;20194;-87
2022/10/21 07:41:13;;;;;;;72.33;10.60;;;14.60;99.90;;;;;;5003134;28;20912;-87
2022/10/21 07:43:39;;;;;;;77.57;12.10;;;14.60;99.90;;;;;;5020170;28;20421;-87
2022/10/21 07:46:05;;;;;;;71.00;10.60;;;14.60;99.90;;;;;;5020339;28;20471;-87
2022/10/21 07:48:31;;;;;;;72.07;11.40;;;14.60;99.90;;;;;;5019978;28;20193;-87
2022/10/21 07:51:09;;;;;;;71.60;10.23;;;14.70;99.90;;;;;;5002391;28;20424;-87
2022/10/21 07:53:36;;;;;;;72.73;11.17;;;14.70;99.90;;;;;;5021279;28;20381;-87
2022/10/21 07:56:08;;;;;;;70.23;11.13;;;14.70;99.90;;;;;;5019676;28;20499;-87
2022/10/21 07:58:34;;;;;;;74.30;10.90;;;14.70;99.90;;;;;;5019998;28;20421;-87
2022/10/21 08:01:01;;;;;;;71.73;10.97;;;14.70;99.90;;;;;;5019903;28;20428;-87
2022/10/21 08:03:27;;;;;;;72.90;11.67;;;14.70;99.90;;;;;;5019757;28;20177;-87
2022/10/21 08:05:53;;;;;;;75.83;10.60;;;14.70;99.90;;;;;;5002656;28;20417;-87
2022/10/21 08:08:22;;;;;;;70.87;11.20;;;14.70;99.90;;;;;;5001752;28;20438;-87
2022/10/21 08:10:49;;;;;;;71.00;12.27;;;14.70;99.90;;;;;;5018997;28;20935;-87
2022/10/21 08:13:15;;;;;;;76.77;10.50;;;14.70;99.90;;;;;;5018365;28;20495;-87
2022/10/21 08:15:49;;;;;;;71.40;9.53;;;14.70;99.90;;;;;;5018898;28;20823;-87
2022/10/21 08:18:16;;;;;;;72.73;10.10;;;14.60;99.90;;;;;;5000790;28;20464;-87
2022/10/21 08:20:43;;;;;;;72.37;10.63;;;14.70;99.90;;;;;;5018376;28;20772;-87
2022/10/21 08:23:15;;;;;;;74.63;10.50;;;14.70;99.90;;;;;;5000622;28;20411;-87
2022/10/21 08:26:12;;;;;;;79.10;12.00;;;14.60;99.90;;;;;;5018157;28;20758;-87
2022/10/21 08:28:38;;;;;;;71.40;9.10;;;14.70;99.90;;;;;;5000552;28;20452;-87
2022/10/21 08:31:07;;;;;;;75.63;11.10;;;14.70;99.90;;;;;;5000765;28;20780;-87
2022/10/21 08:33:33;;;;;;;72.20;9.90;;;14.70;99.90;;;;;;5016214;28;20491;-87
2022/10/21 08:36:03;;;;;;;80.27;11.27;;;14.70;99.90;;;;;;4999924;28;20455;-87
2022/10/21 08:38:28;;;;;;;71.50;9.67;;;14.70;99.90;;;;;;5021673;28;20448;-88
2022/10/21 08:40:54;;;;;;;72.87;9.30;;;14.70;99.90;;;;;;5022619;28;20405;-88
2022/10/21 08:43:27;;;;;;;71.13;11.70;;;14.70;99.90;;;;;;5024190;28;20177;-87
2022/10/21 08:46:15;;;;;;;71.07;9.83;;;14.60;99.90;;;;;;5024051;28;20158;-87
2022/10/21 08:49:16;;;;;;;72.83;11.53;;;14.70;99.90;;;;;;5001652;28;20451;-88
2022/10/21 08:51:58;;;;;;;74.60;13.50;;;14.70;99.90;;;;;;5022110;28;20457;-87
2022/10/21 08:54:46;;;;;;;76.87;14.07;;;14.70;99.90;;;;;;5023479;28;20875;-87
2022/10/21 08:57:18;;;;;;;72.10;10.80;;;14.70;99.90;;;;;;5003748;28;20420;-87
2022/10/21 08:59:50;;;;;;;73.73;11.63;;;14.70;99.90;;;;;;5002528;28;20433;-88
2022/10/21 09:02:35;;;;;;;76.30;13.60;;;14.70;99.90;;;;;;5021237;28;20421;-88
2022/10/21 09:05:25;;;;;;;77.60;10.97;;;14.70;99.90;;;;;;5003748;28;20744;-87
2022/10/21 09:08:15;;;;;;;74.10;10.57;;;14.80;99.90;;;;;;5003218;28;20424;-88
2022/10/21 09:10:55;;;;;;;72.77;13.90;;;14.70;99.90;;;;;;5003057;28;20393;-87
2022/10/21 09:13:58;;;;;;;77.50;13.40;;;14.80;99.90;;;;;;5021127;28;20419;-86
2022/10/21 09:16:35;;;;;;;75.77;12.10;;;14.80;99.90;;;;;;5017414;28;20444;-86
2022/10/21 09:19:23;;;;;;;73.73;12.47;;;14.80;99.90;;;;;;4999746;28;20488;-87
2022/10/21 09:22:09;;;;;;;73.00;12.30;;;14.80;99.90;;;;;;5018460;28;20401;-87
2022/10/21 09:24:56;;;;;;;73.60;16.40;;;14.80;99.90;;;;;;5001316;28;20409;-86
2022/10/21 09:27:22;;;;;;;76.77;15.77;;;14.90;99.90;;;;;;5003017;28;20401;-87
2022/10/21 09:30:20;;;;;;;74.80;17.83;;;14.90;99.90;;;;;;5003888;28;20424;-86
2022/10/21 09:32:48;;;;;;;76.90;20.27;;;14.80;99.90;;;;;;5000846;28;20441;-87
2022/10/21 09:35:21;;;;;;;82.60;18.27;;;14.90;99.90;;;;;;5019705;28;20493;-87
2022/10/21 09:38:09;;;;;;;76.70;17.40;;;14.90;99.90;;;;;;5018567;28;20400;-87
2022/10/21 09:40:35;;;;;;;78.87;15.40;;;14.90;99.90;;;;;;5001313;28;20393;-87
2022/10/21 09:43:03;;;;;;;76.87;18.63;;;14.90;99.90;;;;;;5001740;28;20440;-87
2022/10/21 09:45:39;;;;;;;78.37;16.90;;;14.90;99.90;;;;;;5018109;28;20177;-87
2022/10/21 09:48:17;;;;;;;78.60;16.80;;;14.90;99.90;;;;;;5019323;28;20385;-87
2022/10/21 09:51:03;;;;;;;79.67;20.47;;;14.90;99.90;;;;;;5002791;28;20408;-87
2022/10/21 09:53:32;;;;;;;77.43;15.07;;;15.00;99.90;;;;;;5001553;28;20916;-88
2022/10/21 09:56:08;;;;;;;78.67;18.67;;;15.00;99.90;;;;;;5020742;28;20487;-86
2022/10/21 09:58:37;;;;;;;74.67;16.60;;;15.10;99.90;;;;;;5021026;28;20415;-86
2022/10/21 10:01:06;;;;;;;74.60;14.40;;;15.20;99.90;;;;;;5020794;28;20462;-87
2022/10/21 10:03:41;;;;;;;71.30;12.93;;;15.30;99.90;;;;;;5004717;28;20746;-88
2022/10/21 10:06:07;;;;;;;73.97;12.67;;;15.40;99.90;;;;;;5019704;28;20766;-87
2022/10/21 10:08:40;;;;;;;75.00;13.40;;;15.50;99.90;;;;;;5000725;28;20425;-87
2022/10/21 10:11:08;;;;;;;73.20;12.40;;;15.50;99.90;;;;;;5020908;28;20389;-87
2022/10/21 10:13:41;;;;;;;74.07;13.23;;;15.60;99.90;;;;;;5004464;28;20832;-87
2022/10/21 10:16:13;;;;;;;75.40;13.17;;;15.60;99.90;;;;;;5021448;28;20475;-86
2022/10/21 10:18:39;;;;;;;71.50;10.87;;;15.50;99.90;;;;;;5018723;28;20438;-85
2022/10/21 10:21:11;;;;;;;73.80;13.37;;;15.60;99.90;;;;;;5016428;28;20427;-85
2022/10/21 10:23:49;;;;;;;72.20;12.27;;;15.60;99.90;;;;;;4998028;28;20758;-85
2022/10/21 10:26:34;;;;;;;71.80;13.10;;;15.60;99.90;;;;;;5015480;28;20389;-85
2022/10/21 10:29:15;;;;;;;72.77;11.73;;;15.60;99.90;;;;;;5015050;28;20428;-84
2022/10/21 10:31:49;;;;;;;74.97;13.80;;;15.50;99.90;;;;;;5015773;28;20443;-86
2022/10/21 10:34:27;;;;;;;75.73;15.40;;;15.60;99.90;;;;;;5015147;28;20853;-85
2022/10/21 10:37:22;;;;;;;71.43;14.23;;;15.60;99.90;;;;;;5015637;28;20429;-85
2022/10/21 10:39:51;;;;;;;71.77;12.80;;;15.60;99.90;;;;;;4997918;28;20430;-86
2022/10/21 10:42:32;;;;;;;73.97;16.27;;;15.60;99.90;;;;;;4998941;28;20411;-85
2022/10/21 10:45:02;;;;;;;73.67;12.47;;;15.60;99.90;;;;;;4999926;28;20411;-86
2022/10/21 10:47:34;;;;;;;72.90;14.23;;;15.60;99.90;;;;;;5018551;28;20391;-86
2022/10/21 10:50:00;;;;;;;71.57;13.87;;;15.60;99.90;;;;;;5017814;28;20493;-87
2022/10/21 10:52:25;;;;;;;72.30;12.83;;;15.60;99.90;;;;;;5018404;28;20424;-87
2022/10/21 10:55:09;;;;;;;71.47;13.77;;;15.60;99.90;;;;;;5017878;28;20634;-87
2022/10/21 10:57:37;;;;;;;74.50;17.07;;;15.50;99.90;;;;;;4999858;28;20859;-86
2022/10/21 11:00:12;;;;;;;75.70;14.77;;;15.50;99.90;;;;;;5017282;28;20421;-87
2022/10/21 11:02:47;;;;;;;77.00;18.60;;;15.50;99.90;;;;;;5018120;28;20394;-86
2022/10/21 11:05:35;;;;;;;73.33;17.17;;;15.50;99.90;;;;;;4999779;28;20411;-85
2022/10/21 11:08:29;;;;;;;72.87;16.37;;;15.60;99.90;;;;;;5017334;28;21044;-86
2022/10/21 11:11:28;;;;;;;76.43;20.40;;;15.60;99.90;;;;;;5017835;28;20390;-86
2022/10/21 11:13:55;;;;;;;79.20;19.90;;;15.70;99.90;;;;;;5000096;28;20410;-86
2022/10/21 11:19:06;;;;;;;85.30;18.83;;;15.80;99.90;;;;;;5087849;23;20479;-87
2022/10/21 11:21:43;;;;;;;84.90;18.50;;;15.90;99.90;;;;;;5020353;28;20386;-86
2022/10/21 11:24:44;;;;;;;77.07;18.70;;;15.90;99.90;;;;;;5020875;28;20378;-87
2022/10/21 11:27:25;;;;;;;78.90;18.80;;;16.10;99.90;;;;;;4994997;28;20406;-87
2022/10/21 11:30:08;;;;;;;74.30;17.63;;;16.20;99.90;;;;;;5019798;28;20818;-87
2022/10/21 11:33:06;;;;;;;74.77;18.87;;;16.20;99.90;;;;;;5019189;28;20394;-87
2022/10/21 11:35:45;;;;;;;185.80;171.00;;;16.30;99.90;;;;;;5000167;28;20515;-87
2022/10/21 11:39:16;;;;;;;75.70;20.97;;;16.30;99.90;;;;;;5019567;28;20736;-86
2022/10/21 11:42:34;;;;;;;76.37;20.57;;;16.40;99.90;;;;;;4976258;28;20407;-87
2022/10/21 11:45:11;;;;;;;77.27;17.63;;;16.50;99.90;;;;;;4938474;29;20429;-87
2022/10/21 11:47:55;;;;;;;74.00;17.70;;;16.60;99.90;;;;;;5008316;28;20442;-87
2022/10/21 11:50:39;;;;;;;75.17;20.07;;;16.80;99.90;;;;;;5001103;28;20412;-87
2022/10/21 11:53:32;;;;;;;76.10;19.30;;;17.00;99.90;;;;;;5001112;28;20905;-87
2022/10/21 11:56:16;;;;;;;80.30;21.43;;;17.50;99.90;;;;;;5001286;28;20984;-87
2022/10/21 11:58:57;;;;;;;77.27;16.73;;;17.60;99.90;;;;;;5000625;28;20796;-86
2022/10/21 12:02:04;;;;;;;74.70;20.27;;;17.70;99.90;;;;;;5018238;28;20386;-87
2022/10/21 12:04:42;;;;;;;78.80;23.37;;;17.80;99.90;;;;;;5000409;28;20403;-87
2022/10/21 12:07:13;;;;;;;83.57;29.93;;;18.00;99.90;;;;;;4999947;28;20392;-87
2022/10/21 12:09:43;;;;;;;78.70;35.10;;;18.00;99.90;;;;;;5019562;28;20507;-87
2022/10/21 12:12:18;;;;;;;78.90;34.90;;;18.00;99.90;;;;;;5004539;28;20431;-87
2022/10/21 12:14:57;;;;;;;76.27;24.37;;;18.20;99.90;;;;;;5022169;28;20387;-87
2022/10/21 12:17:24;;;;;;;70.80;11.27;;;18.20;99.90;;;;;;5022016;28;20893;-87
2022/10/21 12:20:03;;;;;;;69.30;12.10;;;18.10;99.90;;;;;;5005083;28;20761;-87
2022/10/21 12:22:35;;;;;;;70.80;12.00;;;18.00;99.90;;;;;;5022035;28;20369;-87
2022/10/21 12:25:23;;;;;;;70.27;12.00;;;18.00;99.90;;;;;;5021727;28;20393;-87
2022/10/21 12:28:27;;;;;;;71.20;11.60;;;18.00;99.90;;;;;;5004330;28;20417;-87
2022/10/21 12:31:08;;;;;;;69.00;11.30;;;18.20;99.90;;;;;;5017695;28;20408;-87
2022/10/21 12:33:44;;;;;;;70.53;13.63;;;18.40;99.90;;;;;;5003296;28;20771;-87
2022/10/21 12:36:22;;;;;;;69.63;11.10;;;18.50;99.90;;;;;;5020867;28;20428;-87
2022/10/21 12:38:53;;;;;;;68.50;9.27;;;18.60;99.90;;;;;;5003015;28;20498;-87
2022/10/21 12:41:24;;;;;;;67.77;5.03;;;18.70;99.90;;;;;;5002959;28;20405;-87
2022/10/21 12:44:02;;;;;;;69.83;6.20;;;18.70;99.90;;;;;;5021726;28;20533;-85
2022/10/21 12:46:36;;;;;;;67.10;6.80;;;18.60;99.90;;;;;;5020754;28;20412;-87
2022/10/21 12:49:29;;;;;;;68.90;8.60;;;18.40;99.90;;;;;;5004220;28;20441;-87
2022/10/21 12:51:58;;;;;;;68.30;8.50;;;18.30;99.90;;;;;;4999618;28;20448;-87
2022/10/21 12:54:28;;;;;;;70.63;12.47;;;18.40;99.90;;;;;;5004015;28;20943;-88
2022/10/21 12:57:07;;;;;;;70.57;12.43;;;18.40;99.90;;;;;;5004006;28;20512;-87